sensor_id;sensor_type;location;lat;lon;timestamp;P1;durP1;ratioP1;P2;durP2;ratioP2
69419;SDS011;56612;52.030;113.524;2023-02-01T11:18:12;60.08;;;17.13;;
69419;SDS011;56612;52.030;113.524;2023-02-01T11:21:23;52.35;;;20.15;;
69419;SDS011;56612;52.030;113.524;2023-02-01T11:27:37;71.72;;;25.30;;
69419;SDS011;56612;52.030;113.524;2023-02-01T11:30:55;66.25;;;24.00;;
69419;SDS011;56612;52.030;113.524;2023-02-01T11:34:06;72.28;;;26.45;;
69419;SDS011;56612;52.030;113.524;2023-02-01T11:37:21;81.93;;;25.60;;
69419;SDS011;56612;52.030;113.524;2023-02-01T11:40:34;89.82;;;29.52;;
69419;SDS011;56612;52.030;113.524;2023-02-01T11:43:51;58.00;;;22.77;;
69419;SDS011;56612;52.030;113.524;2023-02-01T11:47:06;97.40;;;35.78;;
69419;SDS011;56612;52.030;113.524;2023-02-01T11:50:25;79.45;;;25.70;;
69419;SDS011;56612;52.030;113.524;2023-02-01T12:03:31;67.25;;;22.52;;
69419;SDS011;56612;52.030;113.524;2023-02-01T12:16:55;46.80;;;16.33;;
69419;SDS011;56612;52.030;113.524;2023-02-01T12:20:15;45.15;;;15.95;;
69419;SDS011;56612;52.030;113.524;2023-02-01T12:40:48;234.00;;;71.25;;
69419;SDS011;56612;52.030;113.524;2023-02-01T12:44:42;313.90;;;87.13;;
69419;SDS011;56612;52.030;113.524;2023-02-01T12:47:50;337.55;;;90.57;;
69419;SDS011;56612;52.030;113.524;2023-02-01T12:50:58;329.48;;;90.22;;
69419;SDS011;56612;52.030;113.524;2023-02-01T12:57:33;199.90;;;54.70;;
69419;SDS011;56612;52.030;113.524;2023-02-01T13:00:47;159.05;;;45.13;;
69419;SDS011;56612;52.030;113.524;2023-02-01T13:04:33;111.28;;;31.90;;
69419;SDS011;56612;52.030;113.524;2023-02-01T13:07:46;162.85;;;49.78;;
69419;SDS011;56612;52.030;113.524;2023-02-01T13:11:00;143.17;;;43.23;;
69419;SDS011;56612;52.030;113.524;2023-02-01T13:17:31;176.73;;;48.05;;
69419;SDS011;56612;52.030;113.524;2023-02-01T13:24:14;198.30;;;64.50;;
69419;SDS011;56612;52.030;113.524;2023-02-01T13:27:28;249.20;;;70.45;;
69419;SDS011;56612;52.030;113.524;2023-02-01T13:44:19;203.18;;;56.60;;
69419;SDS011;56612;52.030;113.524;2023-02-01T13:47:53;246.68;;;63.05;;
69419;SDS011;56612;52.030;113.524;2023-02-01T13:51:04;207.63;;;58.77;;
69419;SDS011;56612;52.030;113.524;2023-02-01T13:54:25;234.07;;;67.65;;
69419;SDS011;56612;52.030;113.524;2023-02-01T13:57:36;223.88;;;63.47;;
69419;SDS011;56612;52.030;113.524;2023-02-01T14:00:42;252.55;;;69.13;;
69419;SDS011;56612;52.030;113.524;2023-02-01T14:06:56;182.00;;;49.72;;
69419;SDS011;56612;52.030;113.524;2023-02-01T14:10:45;157.82;;;43.53;;
69419;SDS011;56612;52.030;113.524;2023-02-01T14:13:41;192.23;;;56.33;;
69419;SDS011;56612;52.030;113.524;2023-02-01T14:23:39;123.32;;;37.50;;
69419;SDS011;56612;52.030;113.524;2023-02-01T14:26:55;104.97;;;36.43;;
69419;SDS011;56612;52.030;113.524;2023-02-01T14:30:19;92.95;;;31.35;;
69419;SDS011;56612;52.030;113.524;2023-02-01T14:33:24;176.82;;;53.42;;
69419;SDS011;56612;52.030;113.524;2023-02-01T14:36:47;106.57;;;33.00;;
69419;SDS011;56612;52.030;113.524;2023-02-01T14:43:07;188.95;;;55.63;;
69419;SDS011;56612;52.030;113.524;2023-02-01T14:50:15;87.55;;;31.58;;
69419;SDS011;56612;52.030;113.524;2023-02-01T14:53:43;148.75;;;45.15;;
69419;SDS011;56612;52.030;113.524;2023-02-01T14:56:48;192.30;;;59.55;;
69419;SDS011;56612;52.030;113.524;2023-02-01T14:59:59;184.50;;;54.05;;
69419;SDS011;56612;52.030;113.524;2023-02-01T15:06:46;178.43;;;53.90;;
69419;SDS011;56612;52.030;113.524;2023-02-01T15:09:53;157.05;;;46.25;;
69419;SDS011;56612;52.030;113.524;2023-02-01T15:13:02;189.10;;;58.53;;
69419;SDS011;56612;52.030;113.524;2023-02-01T15:16:12;156.43;;;51.65;;
69419;SDS011;56612;52.030;113.524;2023-02-01T15:19:17;104.97;;;34.40;;
69419;SDS011;56612;52.030;113.524;2023-02-01T15:22:23;137.27;;;44.35;;
69419;SDS011;56612;52.030;113.524;2023-02-01T15:25:37;172.45;;;51.25;;
69419;SDS011;56612;52.030;113.524;2023-02-01T15:28:41;129.85;;;41.17;;
69419;SDS011;56612;52.030;113.524;2023-02-01T15:31:48;117.38;;;41.88;;
69419;SDS011;56612;52.030;113.524;2023-02-01T15:34:54;146.03;;;48.50;;
69419;SDS011;56612;52.030;113.524;2023-02-01T15:41:30;117.90;;;39.95;;
69419;SDS011;56612;52.030;113.524;2023-02-01T15:44:34;109.20;;;34.67;;
69419;SDS011;56612;52.030;113.524;2023-02-01T15:47:40;115.20;;;35.38;;
69419;SDS011;56612;52.030;113.524;2023-02-01T15:50:49;108.07;;;34.80;;
69419;SDS011;56612;52.030;113.524;2023-02-01T15:53:55;99.05;;;34.83;;
69419;SDS011;56612;52.030;113.524;2023-02-01T15:57:01;99.27;;;31.40;;
69419;SDS011;56612;52.030;113.524;2023-02-01T16:00:07;445.15;;;180.50;;
69419;SDS011;56612;52.030;113.524;2023-02-01T16:06:45;179.57;;;53.40;;
69419;SDS011;56612;52.030;113.524;2023-02-01T16:09:55;143.18;;;42.40;;
69419;SDS011;56612;52.030;113.524;2023-02-01T16:13:09;190.27;;;54.80;;
69419;SDS011;56612;52.030;113.524;2023-02-01T16:16:13;155.75;;;45.55;;
69419;SDS011;56612;52.030;113.524;2023-02-01T16:19:16;146.93;;;44.55;;
69419;SDS011;56612;52.030;113.524;2023-02-01T16:22:20;78.97;;;29.02;;
69419;SDS011;56612;52.030;113.524;2023-02-01T16:25:26;132.65;;;40.08;;
69419;SDS011;56612;52.030;113.524;2023-02-01T16:28:29;104.17;;;34.40;;
69419;SDS011;56612;52.030;113.524;2023-02-01T16:31:36;119.55;;;30.42;;
69419;SDS011;56612;52.030;113.524;2023-02-01T16:34:42;103.32;;;32.67;;
69419;SDS011;56612;52.030;113.524;2023-02-01T16:37:46;114.43;;;34.60;;
69419;SDS011;56612;52.030;113.524;2023-02-01T16:40:50;128.50;;;31.23;;
69419;SDS011;56612;52.030;113.524;2023-02-01T16:43:54;120.22;;;36.42;;
69419;SDS011;56612;52.030;113.524;2023-02-01T16:46:58;160.50;;;48.88;;
69419;SDS011;56612;52.030;113.524;2023-02-01T16:50:01;268.45;;;69.13;;
69419;SDS011;56612;52.030;113.524;2023-02-01T16:53:25;192.43;;;60.95;;
69419;SDS011;56612;52.030;113.524;2023-02-01T16:56:37;186.30;;;60.00;;
69419;SDS011;56612;52.030;113.524;2023-02-01T16:59:44;278.97;;;74.70;;
69419;SDS011;56612;52.030;113.524;2023-02-01T17:02:48;242.68;;;69.63;;
69419;SDS011;56612;52.030;113.524;2023-02-01T17:05:52;208.50;;;64.65;;
69419;SDS011;56612;52.030;113.524;2023-02-01T17:08:57;249.30;;;68.50;;
69419;SDS011;56612;52.030;113.524;2023-02-01T17:12:01;265.48;;;68.78;;
69419;SDS011;56612;52.030;113.524;2023-02-01T17:15:06;288.33;;;77.25;;
69419;SDS011;56612;52.030;113.524;2023-02-01T17:18:15;151.35;;;42.63;;
69419;SDS011;56612;52.030;113.524;2023-02-01T17:21:20;129.77;;;36.35;;
69419;SDS011;56612;52.030;113.524;2023-02-01T17:24:25;126.85;;;37.33;;
69419;SDS011;56612;52.030;113.524;2023-02-01T17:27:47;253.82;;;66.45;;
69419;SDS011;56612;52.030;113.524;2023-02-01T17:30:51;228.43;;;62.97;;
69419;SDS011;56612;52.030;113.524;2023-02-01T17:33:59;118.25;;;38.55;;
69419;SDS011;56612;52.030;113.524;2023-02-01T17:37:05;204.05;;;60.63;;
69419;SDS011;56612;52.030;113.524;2023-02-01T17:40:10;288.43;;;74.33;;
69419;SDS011;56612;52.030;113.524;2023-02-01T17:43:21;269.85;;;69.57;;
69419;SDS011;56612;52.030;113.524;2023-02-01T17:46:27;169.25;;;45.15;;
69419;SDS011;56612;52.030;113.524;2023-02-01T17:49:30;243.90;;;63.72;;
69419;SDS011;56612;52.030;113.524;2023-02-01T17:52:33;95.25;;;31.88;;
69419;SDS011;56612;52.030;113.524;2023-02-01T17:55:39;85.20;;;25.98;;
69419;SDS011;56612;52.030;113.524;2023-02-01T17:58:44;137.48;;;38.60;;
69419;SDS011;56612;52.030;113.524;2023-02-01T18:01:48;96.53;;;29.53;;
69419;SDS011;56612;52.030;113.524;2023-02-01T18:04:51;61.38;;;23.45;;
69419;SDS011;56612;52.030;113.524;2023-02-01T18:07:55;72.38;;;25.42;;
69419;SDS011;56612;52.030;113.524;2023-02-01T18:10:59;102.27;;;37.23;;
69419;SDS011;56612;52.030;113.524;2023-02-01T18:14:03;72.70;;;23.63;;
69419;SDS011;56612;52.030;113.524;2023-02-01T18:17:07;153.98;;;41.65;;
69419;SDS011;56612;52.030;113.524;2023-02-01T18:20:15;156.75;;;43.72;;
69419;SDS011;56612;52.030;113.524;2023-02-01T18:23:20;79.60;;;27.13;;
69419;SDS011;56612;52.030;113.524;2023-02-01T18:26:24;108.35;;;31.80;;
69419;SDS011;56612;52.030;113.524;2023-02-01T18:29:28;128.20;;;38.78;;
69419;SDS011;56612;52.030;113.524;2023-02-01T18:32:32;222.13;;;61.37;;
69419;SDS011;56612;52.030;113.524;2023-02-01T18:35:36;152.52;;;45.42;;
69419;SDS011;56612;52.030;113.524;2023-02-01T18:38:42;119.93;;;38.28;;
69419;SDS011;56612;52.030;113.524;2023-02-01T18:41:47;107.73;;;37.80;;
69419;SDS011;56612;52.030;113.524;2023-02-01T18:44:53;74.55;;;27.08;;
69419;SDS011;56612;52.030;113.524;2023-02-01T18:47:57;103.22;;;38.67;;
69419;SDS011;56612;52.030;113.524;2023-02-01T18:51:01;156.15;;;48.28;;
69419;SDS011;56612;52.030;113.524;2023-02-01T18:54:05;91.43;;;35.42;;
69419;SDS011;56612;52.030;113.524;2023-02-01T18:57:08;120.90;;;39.45;;
69419;SDS011;56612;52.030;113.524;2023-02-01T19:00:12;102.70;;;35.33;;
69419;SDS011;56612;52.030;113.524;2023-02-01T19:03:16;118.63;;;38.27;;
69419;SDS011;56612;52.030;113.524;2023-02-01T19:06:19;121.28;;;37.42;;
69419;SDS011;56612;52.030;113.524;2023-02-01T19:09:23;141.27;;;40.65;;
69419;SDS011;56612;52.030;113.524;2023-02-01T19:12:26;154.90;;;44.37;;
69419;SDS011;56612;52.030;113.524;2023-02-01T19:15:30;146.55;;;39.90;;
69419;SDS011;56612;52.030;113.524;2023-02-01T19:18:35;169.05;;;47.90;;
69419;SDS011;56612;52.030;113.524;2023-02-01T19:21:40;116.88;;;36.80;;
69419;SDS011;56612;52.030;113.524;2023-02-01T19:24:43;86.53;;;26.15;;
69419;SDS011;56612;52.030;113.524;2023-02-01T19:27:47;95.20;;;33.33;;
69419;SDS011;56612;52.030;113.524;2023-02-01T19:31:01;92.30;;;34.90;;
69419;SDS011;56612;52.030;113.524;2023-02-01T19:34:06;109.77;;;34.53;;
69419;SDS011;56612;52.030;113.524;2023-02-01T19:37:10;137.07;;;38.13;;
69419;SDS011;56612;52.030;113.524;2023-02-01T19:40:16;139.15;;;40.97;;
69419;SDS011;56612;52.030;113.524;2023-02-01T19:43:23;110.43;;;36.83;;
69419;SDS011;56612;52.030;113.524;2023-02-01T19:46:27;81.50;;;27.38;;
69419;SDS011;56612;52.030;113.524;2023-02-01T19:49:30;130.18;;;39.60;;
69419;SDS011;56612;52.030;113.524;2023-02-01T19:52:33;73.63;;;25.40;;
69419;SDS011;56612;52.030;113.524;2023-02-01T19:55:38;75.30;;;24.23;;
69419;SDS011;56612;52.030;113.524;2023-02-01T19:58:47;121.82;;;38.30;;
69419;SDS011;56612;52.030;113.524;2023-02-01T20:01:53;75.43;;;29.65;;
69419;SDS011;56612;52.030;113.524;2023-02-01T20:04:57;114.83;;;34.77;;
69419;SDS011;56612;52.030;113.524;2023-02-01T20:08:00;68.00;;;23.77;;
69419;SDS011;56612;52.030;113.524;2023-02-01T20:11:07;115.15;;;31.92;;
69419;SDS011;56612;52.030;113.524;2023-02-01T20:14:11;98.63;;;27.03;;
69419;SDS011;56612;52.030;113.524;2023-02-01T20:17:15;51.88;;;20.80;;
69419;SDS011;56612;52.030;113.524;2023-02-01T20:20:20;45.67;;;23.05;;
69419;SDS011;56612;52.030;113.524;2023-02-01T20:23:26;80.03;;;27.05;;
69419;SDS011;56612;52.030;113.524;2023-02-01T20:26:29;49.88;;;20.75;;
69419;SDS011;56612;52.030;113.524;2023-02-01T20:29:33;64.45;;;22.27;;
69419;SDS011;56612;52.030;113.524;2023-02-01T20:32:37;102.35;;;28.42;;
69419;SDS011;56612;52.030;113.524;2023-02-01T20:35:43;44.50;;;13.00;;
69419;SDS011;56612;52.030;113.524;2023-02-01T20:38:46;52.13;;;17.98;;
69419;SDS011;56612;52.030;113.524;2023-02-01T20:41:49;78.22;;;26.00;;
69419;SDS011;56612;52.030;113.524;2023-02-01T20:44:53;39.70;;;17.67;;
69419;SDS011;56612;52.030;113.524;2023-02-01T20:47:56;100.55;;;26.80;;
69419;SDS011;56612;52.030;113.524;2023-02-01T20:50:59;77.60;;;21.10;;
69419;SDS011;56612;52.030;113.524;2023-02-01T20:54:05;85.22;;;26.10;;
69419;SDS011;56612;52.030;113.524;2023-02-01T20:57:08;118.00;;;31.90;;
69419;SDS011;56612;52.030;113.524;2023-02-01T21:00:16;85.65;;;24.73;;
69419;SDS011;56612;52.030;113.524;2023-02-01T21:03:20;74.93;;;27.27;;
69419;SDS011;56612;52.030;113.524;2023-02-01T21:06:24;65.40;;;24.63;;
69419;SDS011;56612;52.030;113.524;2023-02-01T21:09:30;129.02;;;35.35;;
69419;SDS011;56612;52.030;113.524;2023-02-01T21:12:33;66.85;;;19.40;;
69419;SDS011;56612;52.030;113.524;2023-02-01T21:15:37;54.40;;;19.20;;
69419;SDS011;56612;52.030;113.524;2023-02-01T21:18:48;61.72;;;21.02;;
69419;SDS011;56612;52.030;113.524;2023-02-01T21:21:52;53.05;;;21.27;;
69419;SDS011;56612;52.030;113.524;2023-02-01T21:24:56;91.40;;;26.98;;
69419;SDS011;56612;52.030;113.524;2023-02-01T21:28:01;103.32;;;32.28;;
69419;SDS011;56612;52.030;113.524;2023-02-01T21:31:04;54.47;;;19.95;;
69419;SDS011;56612;52.030;113.524;2023-02-01T21:34:09;42.30;;;19.08;;
69419;SDS011;56612;52.030;113.524;2023-02-01T21:37:12;49.43;;;15.93;;
69419;SDS011;56612;52.030;113.524;2023-02-01T21:40:16;61.03;;;21.00;;
69419;SDS011;56612;52.030;113.524;2023-02-01T21:43:21;40.58;;;17.85;;
69419;SDS011;56612;52.030;113.524;2023-02-01T21:46:27;95.10;;;29.87;;
69419;SDS011;56612;52.030;113.524;2023-02-01T21:49:30;71.65;;;23.05;;
69419;SDS011;56612;52.030;113.524;2023-02-01T21:52:37;89.88;;;30.98;;
69419;SDS011;56612;52.030;113.524;2023-02-01T21:55:41;147.10;;;36.47;;
69419;SDS011;56612;52.030;113.524;2023-02-01T21:58:48;75.93;;;28.55;;
69419;SDS011;56612;52.030;113.524;2023-02-01T22:01:53;114.22;;;31.55;;
69419;SDS011;56612;52.030;113.524;2023-02-01T22:04:59;61.55;;;21.42;;
69419;SDS011;56612;52.030;113.524;2023-02-01T22:08:03;46.27;;;16.07;;
69419;SDS011;56612;52.030;113.524;2023-02-01T22:11:06;50.38;;;18.83;;
69419;SDS011;56612;52.030;113.524;2023-02-01T22:14:09;51.20;;;12.65;;
69419;SDS011;56612;52.030;113.524;2023-02-01T22:17:15;50.57;;;19.40;;
69419;SDS011;56612;52.030;113.524;2023-02-01T22:20:19;103.32;;;26.40;;
69419;SDS011;56612;52.030;113.524;2023-02-01T22:23:22;78.53;;;24.48;;
69419;SDS011;56612;52.030;113.524;2023-02-01T22:26:30;111.43;;;27.38;;
69419;SDS011;56612;52.030;113.524;2023-02-01T22:29:33;175.95;;;48.53;;
69419;SDS011;56612;52.030;113.524;2023-02-01T22:32:37;71.03;;;26.50;;
69419;SDS011;56612;52.030;113.524;2023-02-01T22:35:41;221.93;;;56.65;;
69419;SDS011;56612;52.030;113.524;2023-02-01T22:38:46;94.20;;;40.60;;
69419;SDS011;56612;52.030;113.524;2023-02-01T22:41:50;154.52;;;38.80;;
69419;SDS011;56612;52.030;113.524;2023-02-01T22:44:53;93.50;;;28.13;;
69419;SDS011;56612;52.030;113.524;2023-02-01T22:47:57;138.20;;;43.53;;
69419;SDS011;56612;52.030;113.524;2023-02-01T22:51:01;144.40;;;40.13;;
69419;SDS011;56612;52.030;113.524;2023-02-01T22:54:04;66.78;;;28.67;;
69419;SDS011;56612;52.030;113.524;2023-02-01T22:57:10;95.05;;;29.73;;
69419;SDS011;56612;52.030;113.524;2023-02-01T23:00:14;67.70;;;26.98;;
69419;SDS011;56612;52.030;113.524;2023-02-01T23:03:17;131.07;;;29.95;;
69419;SDS011;56612;52.030;113.524;2023-02-01T23:06:20;61.95;;;22.58;;
69419;SDS011;56612;52.030;113.524;2023-02-01T23:09:24;95.53;;;25.20;;
69419;SDS011;56612;52.030;113.524;2023-02-01T23:12:27;35.65;;;14.82;;
69419;SDS011;56612;52.030;113.524;2023-02-01T23:15:31;48.25;;;15.90;;
69419;SDS011;56612;52.030;113.524;2023-02-01T23:18:35;48.67;;;16.87;;
69419;SDS011;56612;52.030;113.524;2023-02-01T23:21:38;27.77;;;9.23;;
69419;SDS011;56612;52.030;113.524;2023-02-01T23:24:42;87.05;;;28.02;;
69419;SDS011;56612;52.030;113.524;2023-02-01T23:27:46;60.42;;;21.85;;
69419;SDS011;56612;52.030;113.524;2023-02-01T23:30:50;39.65;;;16.20;;
69419;SDS011;56612;52.030;113.524;2023-02-01T23:33:54;96.63;;;27.00;;
69419;SDS011;56612;52.030;113.524;2023-02-01T23:37:01;71.78;;;23.35;;
69419;SDS011;56612;52.030;113.524;2023-02-01T23:40:04;29.13;;;15.50;;
69419;SDS011;56612;52.030;113.524;2023-02-01T23:43:09;66.40;;;17.98;;
69419;SDS011;56612;52.030;113.524;2023-02-01T23:46:39;63.95;;;23.13;;
69419;SDS011;56612;52.030;113.524;2023-02-01T23:49:49;48.93;;;19.43;;
69419;SDS011;56612;52.030;113.524;2023-02-01T23:52:52;58.80;;;20.98;;
69419;SDS011;56612;52.030;113.524;2023-02-01T23:55:57;47.67;;;19.98;;
69419;SDS011;56612;52.030;113.524;2023-02-01T23:59:01;63.53;;;22.63;;
